createdAt,value
2022-10-14T00:00:23.506Z,1012.27
2022-10-14T00:01:23.607Z,1012.28
2022-10-14T00:02:23.484Z,1012.24
2022-10-14T00:03:23.476Z,1012.24
2022-10-14T00:04:23.464Z,1012.24
2022-10-14T00:05:23.452Z,1012.23
2022-10-14T00:06:23.451Z,1012.24
2022-10-14T00:07:23.575Z,1012.21
2022-10-14T00:08:23.440Z,1012.17
2022-10-14T00:09:23.423Z,1012.20
2022-10-14T00:10:23.416Z,1012.14
2022-10-14T00:11:23.405Z,1012.16
2022-10-14T00:12:23.395Z,1012.13
2022-10-14T00:13:23.390Z,1012.14
2022-10-14T00:14:23.390Z,1012.17
2022-10-14T00:15:23.373Z,1012.14
2022-10-14T00:16:23.373Z,1012.13
2022-10-14T00:17:23.602Z,1012.11
2022-10-14T00:18:23.353Z,1012.13
2022-10-14T00:19:23.338Z,1012.13
2022-10-14T00:20:23.330Z,1012.12
2022-10-14T00:21:23.330Z,1012.11
2022-10-14T00:22:23.314Z,1012.13
2022-10-14T00:23:23.307Z,1012.15
2022-10-14T00:24:23.300Z,1012.16
2022-10-14T00:25:23.287Z,1012.15
2022-10-14T00:26:23.281Z,1012.16
2022-10-14T00:27:23.548Z,1012.17
2022-10-14T00:28:23.296Z,1012.13
2022-10-14T00:29:23.256Z,1012.14
2022-10-14T00:30:23.244Z,1012.14
2022-10-14T00:31:23.240Z,1012.14
2022-10-14T00:32:23.227Z,1012.09
2022-10-14T00:33:23.220Z,1012.14
2022-10-14T00:34:23.213Z,1012.15
2022-10-14T00:35:23.201Z,1012.18
2022-10-14T00:36:23.196Z,1012.16
2022-10-14T00:37:23.595Z,1012.17
2022-10-14T00:38:23.189Z,1012.14
2022-10-14T00:39:23.173Z,1012.15
2022-10-14T00:40:23.168Z,1012.17
2022-10-14T00:41:23.163Z,1012.16
2022-10-14T00:42:23.153Z,1012.14
2022-10-14T00:43:23.139Z,1012.14
2022-10-14T00:44:23.128Z,1012.13
2022-10-14T00:45:23.115Z,1012.15
2022-10-14T00:46:23.109Z,1012.15
2022-10-14T00:47:23.525Z,1012.19
2022-10-14T00:48:23.091Z,1012.19
2022-10-14T00:49:23.083Z,1012.18
2022-10-14T00:50:23.079Z,1012.21
2022-10-14T00:51:23.069Z,1012.20
2022-10-14T00:52:23.055Z,1012.23
2022-10-14T00:53:23.052Z,1012.22
2022-10-14T00:54:23.047Z,1012.17
2022-10-14T00:55:23.033Z,1012.21
2022-10-14T00:56:23.023Z,1012.20
2022-10-14T00:57:23.412Z,1012.20
2022-10-14T00:58:23.007Z,1012.17
2022-10-14T00:59:22.998Z,1012.21
2022-10-14T01:00:23.059Z,1012.20
2022-10-14T01:01:22.981Z,1012.19
2022-10-14T01:02:22.993Z,1012.20
2022-10-14T01:03:22.963Z,1012.20
2022-10-14T01:04:22.958Z,1012.23
2022-10-14T01:05:22.942Z,1012.20
2022-10-14T01:06:22.942Z,1012.21
2022-10-14T01:07:23.187Z,1012.19
2022-10-14T01:08:22.949Z,1012.21
2022-10-14T01:09:22.921Z,1012.18
2022-10-14T01:10:22.903Z,1012.19
2022-10-14T01:11:22.890Z,1012.14
2022-10-14T01:12:28.465Z,1012.14
2022-10-14T01:13:22.875Z,1012.15
2022-10-14T01:14:22.889Z,1012.14
2022-10-14T01:15:22.860Z,1012.08
2022-10-14T01:16:22.852Z,1012.09
2022-10-14T01:17:22.842Z,1012.12
2022-10-14T01:18:22.834Z,1012.13
2022-10-14T01:19:22.826Z,1012.10
2022-10-14T01:20:22.818Z,1012.09
2022-10-14T01:21:22.807Z,1012.16
2022-10-14T01:22:22.832Z,1012.09
2022-10-14T01:23:22.796Z,1012.14
2022-10-14T01:24:22.799Z,1012.14
2022-10-14T01:25:22.772Z,1012.12
2022-10-14T01:26:22.761Z,1012.12
2022-10-14T01:27:22.757Z,1012.08
2022-10-14T01:28:22.780Z,1012.11
2022-10-14T01:29:22.741Z,1012.08
2022-10-14T01:30:22.732Z,1012.07
2022-10-14T01:31:22.721Z,1011.98
2022-10-14T01:32:22.965Z,1012.00
2022-10-14T01:33:22.701Z,1011.99
2022-10-14T01:34:22.694Z,1012.01
2022-10-14T01:35:22.689Z,1011.99
2022-10-14T01:36:22.678Z,1011.98
2022-10-14T01:37:22.677Z,1011.97
2022-10-14T01:38:22.657Z,1011.92
2022-10-14T01:39:22.652Z,1011.95
2022-10-14T01:40:22.646Z,1011.93
2022-10-14T01:41:22.633Z,1011.95
2022-10-14T01:42:23.093Z,1011.94
2022-10-14T01:43:22.619Z,1011.94
2022-10-14T01:44:22.609Z,1011.92
2022-10-14T01:45:22.599Z,1011.93
2022-10-14T01:46:22.592Z,1011.94
2022-10-14T01:47:22.599Z,1011.86
2022-10-14T01:48:22.572Z,1011.94
2022-10-14T01:49:22.562Z,1011.94
2022-10-14T01:50:22.560Z,1011.93
2022-10-14T01:51:22.545Z,1011.92
2022-10-14T01:52:22.994Z,1011.91
2022-10-14T01:53:22.537Z,1011.92
2022-10-14T01:54:22.517Z,1011.91
2022-10-14T01:55:22.514Z,1011.89
2022-10-14T01:56:22.502Z,1011.90
2022-10-14T01:57:22.496Z,1011.90
2022-10-14T01:58:22.488Z,1011.89
2022-10-14T01:59:22.477Z,1011.89
2022-10-14T02:00:22.465Z,1011.86
2022-10-14T02:01:22.482Z,1011.87
2022-10-14T02:02:22.727Z,1011.88
2022-10-14T02:03:22.446Z,1011.89
2022-10-14T02:04:22.432Z,1011.90
2022-10-14T02:05:22.424Z,1011.90
2022-10-14T02:06:22.418Z,1011.90
2022-10-14T02:07:22.406Z,1011.87
2022-10-14T02:08:22.395Z,1011.91
2022-10-14T02:09:22.395Z,1011.83
2022-10-14T02:10:22.379Z,1011.89
2022-10-14T02:11:22.371Z,1011.86
2022-10-14T02:12:22.712Z,1011.87
2022-10-14T02:13:22.356Z,1011.88
2022-10-14T02:14:22.346Z,1011.90
2022-10-14T02:15:22.336Z,1011.88
2022-10-14T02:16:22.331Z,1011.92
2022-10-14T02:17:22.316Z,1011.90
2022-10-14T02:18:22.308Z,1011.90
2022-10-14T02:19:22.302Z,1011.89
2022-10-14T02:20:22.290Z,1011.91
2022-10-14T02:21:22.285Z,1011.91
2022-10-14T02:22:22.669Z,1011.86
2022-10-14T02:23:22.262Z,1011.88
2022-10-14T02:24:22.253Z,1011.85
2022-10-14T02:25:22.243Z,1011.88
2022-10-14T02:26:22.237Z,1011.87
2022-10-14T02:27:22.231Z,1011.87
2022-10-14T02:28:22.262Z,1011.91
2022-10-14T02:29:22.215Z,1011.90
2022-10-14T02:30:22.201Z,1011.91
2022-10-14T02:31:22.194Z,1011.93
2022-10-14T02:32:22.520Z,1011.91
2022-10-14T02:33:22.173Z,1011.92
2022-10-14T02:34:22.167Z,1011.91
2022-10-14T02:35:22.158Z,1011.93
2022-10-14T02:36:22.144Z,1011.93
2022-10-14T02:37:22.140Z,1011.95
2022-10-14T02:38:22.130Z,1011.98
2022-10-14T02:39:22.119Z,1012.00
2022-10-14T02:40:22.121Z,1012.02
2022-10-14T02:41:22.101Z,1012.01
2022-10-14T02:42:22.354Z,1012.00
2022-10-14T02:43:22.082Z,1012.01
2022-10-14T02:44:22.073Z,1012.00
2022-10-14T02:45:22.065Z,1012.02
2022-10-14T02:46:22.064Z,1012.02
2022-10-14T02:47:22.048Z,1012.04
2022-10-14T02:48:22.041Z,1012.05
2022-10-14T02:49:22.028Z,1012.05
2022-10-14T02:50:22.019Z,1012.08
2022-10-14T02:51:22.018Z,1012.04
2022-10-14T02:52:22.300Z,1012.03
2022-10-14T02:53:21.992Z,1012.02
2022-10-14T02:54:21.981Z,1012.02
2022-10-14T02:55:21.970Z,1012.01
2022-10-14T02:56:21.976Z,1011.98
2022-10-14T02:57:21.956Z,1011.98
2022-10-14T02:58:21.948Z,1011.94
2022-10-14T02:59:21.943Z,1011.98
2022-10-14T03:00:21.932Z,1012.00
2022-10-14T03:01:21.968Z,1011.96
2022-10-14T03:02:22.305Z,1011.94
2022-10-14T03:03:21.901Z,1011.91
2022-10-14T03:04:21.900Z,1011.87
2022-10-14T03:05:21.884Z,1011.84
2022-10-14T03:06:21.873Z,1011.81
2022-10-14T03:07:21.869Z,1011.79
2022-10-14T03:08:21.853Z,1011.80
2022-10-14T03:09:21.846Z,1011.80
2022-10-14T03:10:21.842Z,1011.81
2022-10-14T03:11:21.830Z,1011.79
2022-10-14T03:12:22.155Z,1011.76
2022-10-14T03:13:21.807Z,1011.72
2022-10-14T03:14:21.801Z,1011.72
2022-10-14T03:15:21.791Z,1011.70
2022-10-14T03:16:21.783Z,1011.71
2022-10-14T03:17:21.775Z,1011.71
2022-10-14T03:18:21.769Z,1011.67
2022-10-14T03:19:21.757Z,1011.70
2022-10-14T03:20:21.754Z,1011.69
2022-10-14T03:21:21.738Z,1011.67
2022-10-14T03:22:22.077Z,1011.67
2022-10-14T03:23:21.721Z,1011.64
2022-10-14T03:24:21.715Z,1011.57
2022-10-14T03:25:21.704Z,1011.60
2022-10-14T03:26:21.695Z,1011.60
2022-10-14T03:27:21.681Z,1011.61
2022-10-14T03:28:21.729Z,1011.62
2022-10-14T03:29:21.678Z,1011.59
2022-10-14T03:30:21.658Z,1011.59
2022-10-14T03:31:21.655Z,1011.56
2022-10-14T03:32:21.858Z,1011.55
2022-10-14T03:33:24.517Z,1011.52
2022-10-14T03:34:21.621Z,1011.51
2022-10-14T03:35:21.611Z,1011.52
2022-10-14T03:36:21.603Z,1011.54
2022-10-14T03:37:21.594Z,1011.54
2022-10-14T03:38:21.587Z,1011.50
2022-10-14T03:39:21.582Z,1011.53
2022-10-14T03:40:21.569Z,1011.56
2022-10-14T03:41:21.558Z,1011.57
2022-10-14T03:42:21.729Z,1011.53
2022-10-14T03:43:21.540Z,1011.54
2022-10-14T03:44:21.535Z,1011.54
2022-10-14T03:45:21.522Z,1011.52
2022-10-14T03:46:21.510Z,1011.51
2022-10-14T03:47:21.512Z,1011.53
2022-10-14T03:48:21.499Z,1011.53
2022-10-14T03:49:21.486Z,1011.55
2022-10-14T03:50:21.482Z,1011.49
2022-10-14T03:51:21.471Z,1011.51
2022-10-14T03:52:21.721Z,1011.46
2022-10-14T03:53:21.447Z,1011.46
2022-10-14T03:54:21.441Z,1011.46
2022-10-14T03:55:21.442Z,1011.44
2022-10-14T03:56:21.423Z,1011.43
2022-10-14T03:57:21.414Z,1011.45
2022-10-14T03:58:21.407Z,1011.48
2022-10-14T03:59:21.394Z,1011.49
2022-10-14T04:00:21.391Z,1011.49
2022-10-14T04:01:21.464Z,1011.46
2022-10-14T04:02:21.695Z,1011.53
2022-10-14T04:03:21.362Z,1011.49
2022-10-14T04:04:21.357Z,1011.50
2022-10-14T04:05:21.355Z,1011.54
2022-10-14T04:06:21.332Z,1011.55
2022-10-14T04:07:21.323Z,1011.64
2022-10-14T04:08:21.320Z,1011.67
2022-10-14T04:09:21.305Z,1011.71
2022-10-14T04:10:21.297Z,1011.71
2022-10-14T04:11:21.290Z,1011.69
2022-10-14T04:12:21.604Z,1011.64
2022-10-14T04:13:21.270Z,1011.61
2022-10-14T04:14:21.261Z,1011.53
2022-10-14T04:15:21.265Z,1011.52
2022-10-14T04:16:21.253Z,1011.54
2022-10-14T04:17:21.234Z,1011.53
2022-10-14T04:18:21.222Z,1011.56
2022-10-14T04:19:21.213Z,1011.51
2022-10-14T04:20:21.208Z,1011.48
2022-10-14T04:21:21.196Z,1011.47
2022-10-14T04:22:21.475Z,1011.45
2022-10-14T04:23:21.178Z,1011.46
2022-10-14T04:24:21.171Z,1011.49
2022-10-14T04:25:21.158Z,1011.46
2022-10-14T04:26:21.151Z,1011.49
2022-10-14T04:27:21.145Z,1011.44
2022-10-14T04:28:21.161Z,1011.43
2022-10-14T04:29:21.122Z,1011.43
2022-10-14T04:30:21.113Z,1011.42
2022-10-14T04:31:21.102Z,1011.41
2022-10-14T04:32:21.415Z,1011.38
2022-10-14T04:33:21.085Z,1011.37
2022-10-14T04:34:21.076Z,1011.34
2022-10-14T04:35:21.079Z,1011.39
2022-10-14T04:36:21.068Z,1011.36
2022-10-14T04:37:21.044Z,1011.31
2022-10-14T04:38:21.039Z,1011.32
2022-10-14T04:39:21.027Z,1011.33
2022-10-14T04:40:21.019Z,1011.32
2022-10-14T04:41:21.015Z,1011.35
2022-10-14T04:42:21.336Z,1011.33
2022-10-14T04:43:21.002Z,1011.34
2022-10-14T04:44:20.981Z,1011.34
2022-10-14T04:45:20.974Z,1011.34
2022-10-14T04:46:20.963Z,1011.31
2022-10-14T04:47:20.955Z,1011.36
2022-10-14T04:48:20.947Z,1011.36
2022-10-14T04:49:20.937Z,1011.39
2022-10-14T04:50:20.929Z,1011.35
2022-10-14T04:51:20.920Z,1011.35
2022-10-14T04:52:21.095Z,1011.31
2022-10-14T04:53:22.355Z,1011.31
2022-10-14T04:54:20.889Z,1011.25
2022-10-14T04:55:20.882Z,1011.24
2022-10-14T04:56:20.868Z,1011.28
2022-10-14T04:57:20.863Z,1011.27
2022-10-14T04:58:20.853Z,1011.26
2022-10-14T04:59:20.844Z,1011.28
2022-10-14T05:00:20.838Z,1011.28
2022-10-14T05:01:20.892Z,1011.27
2022-10-14T05:02:21.092Z,1011.27
2022-10-14T05:03:20.808Z,1011.30
2022-10-14T05:04:20.799Z,1011.30
2022-10-14T05:05:20.786Z,1011.27
2022-10-14T05:06:20.780Z,1011.20
2022-10-14T05:07:20.773Z,1011.23
2022-10-14T05:08:20.765Z,1011.17
2022-10-14T05:09:20.749Z,1011.23
2022-10-14T05:10:20.742Z,1011.18
2022-10-14T05:11:20.737Z,1011.22
2022-10-14T05:12:20.991Z,1011.26
2022-10-14T05:13:20.711Z,1011.26
2022-10-14T05:14:20.707Z,1011.26
2022-10-14T05:15:20.693Z,1011.24
2022-10-14T05:16:20.687Z,1011.27
2022-10-14T05:17:20.678Z,1011.28
2022-10-14T05:18:20.671Z,1011.25
2022-10-14T05:19:20.661Z,1011.21
2022-10-14T05:20:20.654Z,1011.28
2022-10-14T05:21:20.644Z,1011.25
2022-10-14T05:22:20.908Z,1011.23
2022-10-14T05:23:20.623Z,1011.24
2022-10-14T05:24:20.618Z,1011.26
2022-10-14T05:25:20.604Z,1011.25
2022-10-14T05:26:20.594Z,1011.23
2022-10-14T05:27:20.590Z,1011.23
2022-10-14T05:28:20.623Z,1011.25
2022-10-14T05:29:20.569Z,1011.22
2022-10-14T05:30:20.561Z,1011.25
2022-10-14T05:31:20.553Z,1011.24
2022-10-14T05:32:20.919Z,1011.22
2022-10-14T05:33:20.538Z,1011.19
2022-10-14T05:34:20.524Z,1011.18
2022-10-14T05:35:39.800Z,1011.20
2022-10-14T05:36:20.506Z,1011.17
2022-10-14T05:37:20.502Z,1011.19
2022-10-14T05:38:20.493Z,1011.14
2022-10-14T05:39:20.479Z,1011.18
2022-10-14T05:40:20.472Z,1011.15
2022-10-14T05:41:20.462Z,1011.18
2022-10-14T05:42:20.682Z,1011.15
2022-10-14T05:43:20.446Z,1011.16
2022-10-14T05:44:20.439Z,1011.15
2022-10-14T05:45:20.461Z,1011.15
2022-10-14T05:46:20.417Z,1011.16
2022-10-14T05:47:20.420Z,1011.14
2022-10-14T05:48:20.401Z,1011.13
2022-10-14T05:49:20.388Z,1011.17
2022-10-14T05:50:20.387Z,1011.14
2022-10-14T05:51:20.375Z,1011.16
2022-10-14T05:52:20.790Z,1011.16
2022-10-14T05:53:20.360Z,1011.14
2022-10-14T05:54:20.394Z,1011.12
2022-10-14T05:55:20.339Z,1011.12
2022-10-14T05:56:20.337Z,1011.14
2022-10-14T05:57:20.320Z,1011.11
2022-10-14T05:58:20.315Z,1011.08
2022-10-14T05:59:20.302Z,1011.11
2022-10-14T06:00:24.795Z,1011.09
2022-10-14T06:01:20.281Z,1011.10
2022-10-14T06:02:20.765Z,1011.11
2022-10-14T06:03:20.313Z,1011.12
2022-10-14T06:04:20.265Z,1011.10
2022-10-14T06:05:20.252Z,1011.10
2022-10-14T06:06:21.647Z,1011.10
2022-10-14T06:07:20.230Z,1011.09
2022-10-14T06:08:20.226Z,1011.10
2022-10-14T06:09:20.217Z,1011.11
2022-10-14T06:10:20.207Z,1011.10
2022-10-14T06:11:20.197Z,1011.10
2022-10-14T06:12:20.500Z,1011.11
2022-10-14T06:13:20.176Z,1011.11
2022-10-14T06:14:20.172Z,1011.12
2022-10-14T06:15:20.160Z,1011.11
2022-10-14T06:16:20.166Z,1011.15
2022-10-14T06:17:20.147Z,1011.13
2022-10-14T06:18:20.138Z,1011.17
2022-10-14T06:19:20.138Z,1011.18
2022-10-14T06:20:20.116Z,1011.18
2022-10-14T06:21:20.131Z,1011.17
2022-10-14T06:22:20.472Z,1011.16
2022-10-14T06:23:20.094Z,1011.17
2022-10-14T06:24:20.085Z,1011.12
2022-10-14T06:25:20.075Z,1011.17
2022-10-14T06:26:20.070Z,1011.18
2022-10-14T06:27:20.058Z,1011.18
2022-10-14T06:28:20.118Z,1011.18
2022-10-14T06:29:20.046Z,1011.20
2022-10-14T06:30:20.036Z,1011.22
2022-10-14T06:31:20.027Z,1011.21
2022-10-14T06:32:20.463Z,1011.20
2022-10-14T06:33:20.006Z,1011.21
2022-10-14T06:34:20.000Z,1011.20
2022-10-14T06:35:19.992Z,1011.22
2022-10-14T06:36:19.985Z,1011.19
2022-10-14T06:37:19.980Z,1011.14
2022-10-14T06:38:19.969Z,1011.10
2022-10-14T06:39:19.962Z,1011.12
2022-10-14T06:40:19.946Z,1011.11
2022-10-14T06:41:19.941Z,1011.12
2022-10-14T06:42:19.933Z,1011.11
2022-10-14T06:43:19.926Z,1011.10
2022-10-14T06:44:19.923Z,1011.10
2022-10-14T06:45:19.907Z,1011.11
2022-10-14T06:46:19.898Z,1011.09
2022-10-14T06:47:19.889Z,1011.10
2022-10-14T06:48:19.891Z,1011.09
2022-10-14T06:49:19.880Z,1011.11
2022-10-14T06:50:19.869Z,1011.10
2022-10-14T06:51:19.864Z,1011.11
2022-10-14T06:52:20.063Z,1011.13
2022-10-14T06:53:19.838Z,1011.14
2022-10-14T06:54:19.837Z,1011.16
2022-10-14T06:55:19.821Z,1011.15
2022-10-14T06:56:19.820Z,1011.17
2022-10-14T06:57:19.812Z,1011.20
2022-10-14T06:58:19.803Z,1011.24
2022-10-14T06:59:19.796Z,1011.23
2022-10-14T07:00:19.781Z,1011.27
2022-10-14T07:01:19.806Z,1011.29
2022-10-14T07:02:20.071Z,1011.32
2022-10-14T07:03:19.761Z,1011.32
2022-10-14T07:04:19.752Z,1011.35
2022-10-14T07:05:19.753Z,1011.38
2022-10-14T07:06:19.743Z,1011.38
2022-10-14T07:07:19.732Z,1011.40
2022-10-14T07:08:19.723Z,1011.34
2022-10-14T07:09:19.714Z,1011.37
2022-10-14T07:10:19.706Z,1011.37
2022-10-14T07:11:19.707Z,1011.41
2022-10-14T07:12:19.966Z,1011.45
2022-10-14T07:13:19.684Z,1011.43
2022-10-14T07:14:19.691Z,1011.42
2022-10-14T07:15:19.665Z,1011.40
2022-10-14T07:16:19.661Z,1011.40
2022-10-14T07:17:20.124Z,1011.41
2022-10-14T07:18:19.648Z,1011.42
2022-10-14T07:19:19.634Z,1011.40
2022-10-14T07:20:19.634Z,1011.43
2022-10-14T07:21:19.617Z,1011.40
2022-10-14T07:22:19.955Z,1011.38
2022-10-14T07:23:19.607Z,1011.40
2022-10-14T07:24:19.598Z,1011.44
2022-10-14T07:25:19.599Z,1011.44
2022-10-14T07:26:19.582Z,1011.43
2022-10-14T07:27:19.670Z,1011.44
2022-10-14T07:28:19.669Z,1011.49
2022-10-14T07:29:19.560Z,1011.48
2022-10-14T07:30:19.555Z,1011.48
2022-10-14T07:31:19.543Z,1011.50
2022-10-14T07:32:19.538Z,1011.51
2022-10-14T07:33:19.534Z,1011.49
2022-10-14T07:34:19.526Z,1011.48
2022-10-14T07:35:19.511Z,1011.47
2022-10-14T07:36:22.346Z,1011.51
2022-10-14T07:37:19.793Z,1011.51
2022-10-14T07:38:19.492Z,1011.50
2022-10-14T07:39:19.483Z,1011.48
2022-10-14T07:40:19.479Z,1011.49
2022-10-14T07:41:19.473Z,1011.49
2022-10-14T07:43:19.457Z,1011.49
2022-10-14T07:44:22.452Z,1011.47
2022-10-14T07:45:19.440Z,1011.51
2022-10-14T07:46:19.436Z,1011.53
2022-10-14T07:47:19.688Z,1011.55
2022-10-14T07:48:27.289Z,1011.53
2022-10-14T07:49:19.412Z,1011.54
2022-10-14T07:50:19.405Z,1011.53
2022-10-14T07:51:19.392Z,1011.52
2022-10-14T07:52:19.390Z,1011.55
2022-10-14T07:53:19.380Z,1011.58
2022-10-14T07:54:19.375Z,1011.52
2022-10-14T07:55:19.369Z,1011.52
2022-10-14T07:56:19.368Z,1011.52
2022-10-14T07:57:19.743Z,1011.53
2022-10-14T07:58:19.348Z,1011.45
2022-10-14T07:59:19.340Z,1011.43
2022-10-14T08:00:19.344Z,1011.42
2022-10-14T08:01:19.397Z,1011.45
2022-10-14T08:02:19.316Z,1011.42
2022-10-14T08:03:19.310Z,1011.43
2022-10-14T08:04:19.302Z,1011.43
2022-10-14T08:05:37.122Z,1011.44
2022-10-14T08:06:19.319Z,1011.42
2022-10-14T08:07:19.647Z,1011.42
2022-10-14T08:08:19.275Z,1011.41
2022-10-14T08:09:19.320Z,1011.44
2022-10-14T08:10:19.263Z,1011.44
2022-10-14T08:11:19.253Z,1011.43
2022-10-14T08:12:19.692Z,1011.40
2022-10-14T08:13:19.241Z,1011.37
2022-10-14T08:14:19.239Z,1011.36
2022-10-14T08:15:19.240Z,1011.40
2022-10-14T08:16:19.224Z,1011.39
2022-10-14T08:17:19.211Z,1011.42
2022-10-14T08:18:19.211Z,1011.38
2022-10-14T08:19:19.199Z,1011.39
2022-10-14T08:20:19.195Z,1011.40
2022-10-14T08:21:19.192Z,1011.41
2022-10-14T08:22:19.456Z,1011.45
2022-10-14T08:23:19.962Z,1011.46
2022-10-14T08:24:19.167Z,1011.45
2022-10-14T08:25:19.161Z,1011.37
2022-10-14T08:26:19.154Z,1011.38
2022-10-14T08:27:19.149Z,1011.32
2022-10-14T08:28:19.179Z,1011.33
2022-10-14T08:29:19.136Z,1011.29
2022-10-14T08:30:19.129Z,1011.27
2022-10-14T08:31:19.124Z,1011.28
2022-10-14T08:32:19.383Z,1011.28
2022-10-14T08:33:19.115Z,1011.24
2022-10-14T08:34:19.103Z,1011.26
2022-10-14T08:35:19.104Z,1011.24
2022-10-14T08:36:19.094Z,1011.22
2022-10-14T08:37:19.084Z,1011.19
2022-10-14T08:38:19.082Z,1011.19
2022-10-14T08:39:19.079Z,1011.21
2022-10-14T08:40:19.064Z,1011.20
2022-10-14T08:41:19.057Z,1011.21
2022-10-14T08:42:19.321Z,1011.23
2022-10-14T08:43:19.047Z,1011.21
2022-10-14T08:44:19.045Z,1011.19
2022-10-14T08:45:19.035Z,1011.20
2022-10-14T08:46:19.025Z,1011.17
2022-10-14T08:47:19.021Z,1011.17
2022-10-14T08:48:19.043Z,1011.17
2022-10-14T08:49:19.006Z,1011.17
2022-10-14T08:50:19.001Z,1011.16
2022-10-14T08:51:18.991Z,1011.14
2022-10-14T08:52:19.261Z,1011.17
2022-10-14T08:53:18.982Z,1011.16
2022-10-14T08:54:18.975Z,1011.18
2022-10-14T08:55:18.968Z,1011.20
2022-10-14T08:56:18.973Z,1011.22
2022-10-14T08:57:18.958Z,1011.23
2022-10-14T08:58:19.026Z,1011.23
2022-10-14T08:59:18.944Z,1011.19
2022-10-14T09:00:18.941Z,1011.20
2022-10-14T09:01:18.939Z,1011.22
2022-10-14T09:02:19.229Z,1011.26
2022-10-14T09:03:18.926Z,1011.24
2022-10-14T09:04:18.931Z,1011.25
2022-10-14T09:05:18.906Z,1011.24
2022-10-14T09:06:18.901Z,1011.23
2022-10-14T09:07:18.896Z,1011.22
2022-10-14T09:08:18.911Z,1011.22
2022-10-14T09:09:18.886Z,1011.21
2022-10-14T09:10:18.877Z,1011.20
2022-10-14T09:11:18.875Z,1011.20
2022-10-14T09:12:19.235Z,1011.22
2022-10-14T09:13:18.864Z,1011.25
2022-10-14T09:14:18.857Z,1011.25
2022-10-14T09:15:18.851Z,1011.23
2022-10-14T09:16:18.845Z,1011.20
2022-10-14T09:17:18.841Z,1011.19
2022-10-14T09:18:18.837Z,1011.16
2022-10-14T09:19:18.831Z,1011.14
2022-10-14T09:20:18.856Z,1011.12
2022-10-14T09:21:27.830Z,1011.07
2022-10-14T09:22:19.120Z,1011.02
2022-10-14T09:23:18.809Z,1010.99
2022-10-14T09:24:18.808Z,1011.05
2022-10-14T09:25:18.797Z,1011.04
2022-10-14T09:26:18.794Z,1011.09
2022-10-14T09:27:18.945Z,1011.08
2022-10-14T09:28:18.822Z,1011.11
2022-10-14T09:29:18.780Z,1011.15
2022-10-14T09:30:18.772Z,1011.15
2022-10-14T09:31:18.767Z,1011.12
2022-10-14T09:32:18.969Z,1011.17
2022-10-14T09:33:18.756Z,1011.14
2022-10-14T09:34:20.155Z,1011.12
2022-10-14T09:35:18.746Z,1011.16
2022-10-14T09:36:18.743Z,1011.16
2022-10-14T09:37:19.224Z,1011.12
2022-10-14T09:38:18.733Z,1011.12
2022-10-14T09:39:18.728Z,1011.02
2022-10-14T09:40:18.738Z,1011.05
2022-10-14T09:41:18.720Z,1011.03
2022-10-14T09:42:18.725Z,1011.00
2022-10-14T09:43:18.707Z,1010.98
2022-10-14T09:44:18.775Z,1010.96
2022-10-14T09:45:18.697Z,1010.93
2022-10-14T09:46:18.698Z,1010.88
2022-10-14T09:47:18.688Z,1010.84
2022-10-14T09:48:18.684Z,1010.83
2022-10-14T09:49:18.682Z,1010.88
2022-10-14T09:50:18.750Z,1010.88
2022-10-14T09:51:18.672Z,1010.94
2022-10-14T09:52:18.668Z,1010.91
2022-10-14T09:53:18.663Z,1010.90
2022-10-14T09:54:18.660Z,1010.88
2022-10-14T09:55:18.656Z,1010.91
2022-10-14T09:56:20.074Z,1010.87
2022-10-14T09:57:18.648Z,1010.90
2022-10-14T09:58:18.646Z,1010.89
2022-10-14T09:59:18.636Z,1010.87
2022-10-14T10:00:18.630Z,1010.89
2022-10-14T10:01:18.629Z,1010.85
2022-10-14T10:02:18.619Z,1010.84
2022-10-14T10:03:18.618Z,1010.84
2022-10-14T10:04:18.609Z,1010.83
2022-10-14T10:05:18.607Z,1010.79
2022-10-14T10:06:18.603Z,1010.75
2022-10-14T10:07:18.597Z,1010.74
2022-10-14T10:08:18.592Z,1010.75
2022-10-14T10:09:18.590Z,1010.74
2022-10-14T10:10:18.592Z,1010.72
2022-10-14T10:11:18.580Z,1010.71
2022-10-14T10:12:18.581Z,1010.70
2022-10-14T10:13:18.578Z,1010.70
2022-10-14T10:14:18.568Z,1010.72
2022-10-14T10:15:18.561Z,1010.67
2022-10-14T10:16:18.563Z,1010.69
2022-10-14T10:17:18.571Z,1010.66
2022-10-14T10:18:18.548Z,1010.65
2022-10-14T10:19:18.553Z,1010.63
2022-10-14T10:20:18.538Z,1010.59
2022-10-14T10:21:18.539Z,1010.61
2022-10-14T10:23:18.528Z,1010.58
2022-10-14T10:24:18.523Z,1010.58
2022-10-14T10:25:18.519Z,1010.59
2022-10-14T10:26:18.516Z,1010.55
2022-10-14T10:27:18.532Z,1010.56
2022-10-14T10:28:18.577Z,1010.60
2022-10-14T10:29:18.504Z,1010.60
2022-10-14T10:30:18.500Z,1010.62
2022-10-14T10:31:18.690Z,1010.55
2022-10-14T10:32:18.696Z,1010.62
2022-10-14T10:33:18.487Z,1010.62
2022-10-14T10:34:18.481Z,1010.61
2022-10-14T10:35:18.479Z,1010.56
2022-10-14T10:37:18.473Z,1010.62
2022-10-14T10:38:18.460Z,1010.62
2022-10-14T10:39:18.462Z,1010.63
2022-10-14T10:40:18.453Z,1010.59
2022-10-14T10:41:18.450Z,1010.61
2022-10-14T10:42:18.460Z,1010.61
2022-10-14T10:43:18.443Z,1010.64
2022-10-14T10:44:18.437Z,1010.68
2022-10-14T10:45:18.433Z,1010.64
2022-10-14T10:46:18.430Z,1010.64
2022-10-14T10:47:18.425Z,1010.65
2022-10-14T10:48:18.421Z,1010.64
2022-10-14T10:49:18.415Z,1010.61
2022-10-14T10:50:18.415Z,1010.65
2022-10-14T10:51:18.415Z,1010.64
2022-10-14T10:52:21.251Z,1010.59
2022-10-14T10:53:18.404Z,1010.59
2022-10-14T10:54:18.397Z,1010.59
2022-10-14T10:55:18.400Z,1010.57
2022-10-14T10:56:18.400Z,1010.61
2022-10-14T10:57:18.494Z,1010.56
2022-10-14T10:58:18.383Z,1010.54
2022-10-14T11:00:18.423Z,1010.56
2022-10-14T11:01:18.443Z,1010.54
2022-10-14T11:02:18.371Z,1010.52
2022-10-14T11:03:18.362Z,1010.53
2022-10-14T11:04:18.356Z,1010.50
2022-10-14T11:05:18.351Z,1010.53
2022-10-14T11:06:18.347Z,1010.50
2022-10-14T11:07:18.345Z,1010.53
2022-10-14T11:08:18.339Z,1010.52
2022-10-14T11:09:18.339Z,1010.51
2022-10-14T11:10:18.335Z,1010.53
2022-10-14T11:11:18.331Z,1010.56
2022-10-14T11:12:18.330Z,1010.51
2022-10-14T11:13:18.325Z,1010.50
2022-10-14T11:14:18.324Z,1010.48
2022-10-14T11:16:18.317Z,1010.49
2022-10-14T11:17:18.307Z,1010.52
2022-10-14T11:18:18.306Z,1010.50
2022-10-14T11:19:18.300Z,1010.47
2022-10-14T11:20:18.294Z,1010.44
2022-10-14T11:21:18.296Z,1010.45
2022-10-14T11:22:18.287Z,1010.43
2022-10-14T11:23:18.287Z,1010.42
2022-10-14T11:24:18.281Z,1010.41
2022-10-14T11:25:18.275Z,1010.44
2022-10-14T11:26:18.279Z,1010.39
2022-10-14T11:27:21.010Z,1010.40
2022-10-14T11:28:18.325Z,1010.41
2022-10-14T11:29:18.262Z,1010.40
2022-10-14T11:30:18.260Z,1010.40
2022-10-14T11:31:18.275Z,1010.36
2022-10-14T11:32:18.252Z,1010.34
2022-10-14T11:33:18.249Z,1010.34
2022-10-14T11:34:18.244Z,1010.34
2022-10-14T11:35:18.246Z,1010.33
2022-10-14T11:36:18.245Z,1010.30
2022-10-14T11:37:18.237Z,1010.27
2022-10-14T11:38:18.230Z,1010.28
2022-10-14T11:39:18.232Z,1010.21
2022-10-14T11:40:18.224Z,1010.19
2022-10-14T11:41:18.218Z,1010.16
2022-10-14T11:42:18.216Z,1010.16
2022-10-14T11:43:18.219Z,1010.17
2022-10-14T11:44:18.209Z,1010.19
2022-10-14T11:45:21.163Z,1010.15
2022-10-14T11:46:18.208Z,1010.14
2022-10-14T11:47:18.199Z,1010.15
2022-10-14T11:48:18.193Z,1010.16
2022-10-14T11:49:18.188Z,1010.19
2022-10-14T11:50:18.190Z,1010.15
2022-10-14T11:51:18.185Z,1010.13
2022-10-14T11:52:18.182Z,1010.13
2022-10-14T11:53:18.181Z,1010.13
2022-10-14T11:54:18.172Z,1010.08
2022-10-14T11:55:18.169Z,1010.11
2022-10-14T11:56:18.160Z,1010.11
2022-10-14T11:57:18.160Z,1010.09
2022-10-14T11:58:18.159Z,1010.10
2022-10-14T11:59:18.157Z,1010.07
2022-10-14T12:00:18.189Z,1010.05
2022-10-14T12:01:18.147Z,1010.04
2022-10-14T12:02:18.174Z,1010.06
2022-10-14T12:03:18.142Z,1010.03
2022-10-14T12:04:18.137Z,1010.02
2022-10-14T12:05:18.135Z,1010.00
2022-10-14T12:06:18.138Z,1010.03
2022-10-14T12:07:18.330Z,1010.05
2022-10-14T12:08:18.122Z,1010.01
2022-10-14T12:09:18.119Z,1010.01
2022-10-14T12:10:18.128Z,1010.03